sensor_id;sensor_type;location;lat;lon;timestamp;P1;durP1;ratioP1;P2;durP2;ratioP2
24617;SDS011;12762;51.730;5.356;2023-04-09T00:00:22;31.87;;;19.87;;
24617;SDS011;12762;51.730;5.356;2023-04-09T00:02:49;31.10;;;18.80;;
24617;SDS011;12762;51.730;5.356;2023-04-09T00:05:16;30.43;;;19.57;;
24617;SDS011;12762;51.730;5.356;2023-04-09T00:07:46;27.00;;;17.80;;
24617;SDS011;12762;51.730;5.356;2023-04-09T00:10:12;30.20;;;18.83;;
24617;SDS011;12762;51.730;5.356;2023-04-09T00:12:41;30.27;;;18.83;;
24617;SDS011;12762;51.730;5.356;2023-04-09T00:15:08;29.10;;;18.60;;
24617;SDS011;12762;51.730;5.356;2023-04-09T00:17:45;29.20;;;18.70;;
24617;SDS011;12762;51.730;5.356;2023-04-09T00:20:12;30.33;;;18.87;;
24617;SDS011;12762;51.730;5.356;2023-04-09T00:22:40;28.13;;;18.00;;
24617;SDS011;12762;51.730;5.356;2023-04-09T00:25:07;28.50;;;18.57;;
24617;SDS011;12762;51.730;5.356;2023-04-09T00:27:34;30.10;;;17.97;;
24617;SDS011;12762;51.730;5.356;2023-04-09T00:30:01;25.70;;;17.13;;
24617;SDS011;12762;51.730;5.356;2023-04-09T00:32:28;25.63;;;16.97;;
24617;SDS011;12762;51.730;5.356;2023-04-09T00:34:55;25.87;;;16.57;;
24617;SDS011;12762;51.730;5.356;2023-04-09T00:37:22;29.27;;;18.63;;
24617;SDS011;12762;51.730;5.356;2023-04-09T00:39:48;27.87;;;17.23;;
24617;SDS011;12762;51.730;5.356;2023-04-09T00:42:15;31.03;;;18.60;;
24617;SDS011;12762;51.730;5.356;2023-04-09T00:44:43;28.97;;;17.53;;
24617;SDS011;12762;51.730;5.356;2023-04-09T00:47:09;28.33;;;17.40;;
24617;SDS011;12762;51.730;5.356;2023-04-09T00:49:36;26.93;;;17.23;;
24617;SDS011;12762;51.730;5.356;2023-04-09T00:52:03;29.60;;;18.07;;
24617;SDS011;12762;51.730;5.356;2023-04-09T00:54:30;27.40;;;17.70;;
24617;SDS011;12762;51.730;5.356;2023-04-09T00:56:58;30.53;;;17.67;;
24617;SDS011;12762;51.730;5.356;2023-04-09T00:59:25;27.30;;;17.57;;
24617;SDS011;12762;51.730;5.356;2023-04-09T01:01:52;26.10;;;17.23;;
24617;SDS011;12762;51.730;5.356;2023-04-09T01:04:18;27.97;;;17.70;;
24617;SDS011;12762;51.730;5.356;2023-04-09T01:11:50;25.37;;;16.57;;
24617;SDS011;12762;51.730;5.356;2023-04-09T01:17:49;30.50;;;17.83;;
24617;SDS011;12762;51.730;5.356;2023-04-09T01:23:15;26.80;;;16.70;;
24617;SDS011;12762;51.730;5.356;2023-04-09T01:28:53;30.93;;;18.03;;
24617;SDS011;12762;51.730;5.356;2023-04-09T01:31:25;28.13;;;17.87;;
24617;SDS011;12762;51.730;5.356;2023-04-09T01:33:59;32.33;;;18.60;;
24617;SDS011;12762;51.730;5.356;2023-04-09T01:36:27;28.87;;;17.60;;
24617;SDS011;12762;51.730;5.356;2023-04-09T01:38:57;30.60;;;19.00;;
24617;SDS011;12762;51.730;5.356;2023-04-09T01:41:26;28.40;;;17.80;;
24617;SDS011;12762;51.730;5.356;2023-04-09T01:43:55;30.00;;;17.63;;
24617;SDS011;12762;51.730;5.356;2023-04-09T01:46:27;26.40;;;16.70;;
24617;SDS011;12762;51.730;5.356;2023-04-09T01:48:55;30.57;;;17.67;;
24617;SDS011;12762;51.730;5.356;2023-04-09T01:51:22;30.33;;;17.83;;
24617;SDS011;12762;51.730;5.356;2023-04-09T01:53:49;31.83;;;18.33;;
24617;SDS011;12762;51.730;5.356;2023-04-09T01:56:16;28.83;;;17.20;;
24617;SDS011;12762;51.730;5.356;2023-04-09T01:58:43;31.67;;;18.83;;
24617;SDS011;12762;51.730;5.356;2023-04-09T02:01:16;30.17;;;18.10;;
24617;SDS011;12762;51.730;5.356;2023-04-09T02:03:59;30.47;;;18.27;;
24617;SDS011;12762;51.730;5.356;2023-04-09T02:09:09;28.73;;;17.50;;
24617;SDS011;12762;51.730;5.356;2023-04-09T02:11:41;31.30;;;17.77;;
24617;SDS011;12762;51.730;5.356;2023-04-09T02:14:11;29.23;;;17.73;;
24617;SDS011;12762;51.730;5.356;2023-04-09T02:16:41;28.57;;;17.73;;
24617;SDS011;12762;51.730;5.356;2023-04-09T02:19:10;32.73;;;18.60;;
24617;SDS011;12762;51.730;5.356;2023-04-09T02:21:37;32.33;;;18.13;;
24617;SDS011;12762;51.730;5.356;2023-04-09T02:24:04;31.10;;;17.43;;
24617;SDS011;12762;51.730;5.356;2023-04-09T02:26:31;32.33;;;18.97;;
24617;SDS011;12762;51.730;5.356;2023-04-09T02:28:58;33.17;;;17.97;;
24617;SDS011;12762;51.730;5.356;2023-04-09T02:31:24;29.20;;;17.60;;
24617;SDS011;12762;51.730;5.356;2023-04-09T02:33:51;30.50;;;18.57;;
24617;SDS011;12762;51.730;5.356;2023-04-09T02:36:19;28.80;;;17.73;;
24617;SDS011;12762;51.730;5.356;2023-04-09T02:38:46;32.27;;;18.83;;
24617;SDS011;12762;51.730;5.356;2023-04-09T02:41:13;31.10;;;18.83;;
24617;SDS011;12762;51.730;5.356;2023-04-09T02:43:39;32.07;;;19.07;;
24617;SDS011;12762;51.730;5.356;2023-04-09T02:46:06;32.30;;;18.60;;
24617;SDS011;12762;51.730;5.356;2023-04-09T02:48:33;34.47;;;17.93;;
24617;SDS011;12762;51.730;5.356;2023-04-09T02:51:00;32.83;;;18.83;;
24617;SDS011;12762;51.730;5.356;2023-04-09T02:53:29;31.20;;;19.00;;
24617;SDS011;12762;51.730;5.356;2023-04-09T02:55:58;32.43;;;18.53;;
24617;SDS011;12762;51.730;5.356;2023-04-09T02:58:25;31.63;;;17.67;;
24617;SDS011;12762;51.730;5.356;2023-04-09T03:00:52;30.70;;;18.33;;
24617;SDS011;12762;51.730;5.356;2023-04-09T03:03:18;29.43;;;17.93;;
24617;SDS011;12762;51.730;5.356;2023-04-09T03:05:45;32.67;;;19.53;;
24617;SDS011;12762;51.730;5.356;2023-04-09T03:08:12;31.50;;;18.47;;
24617;SDS011;12762;51.730;5.356;2023-04-09T03:10:39;31.33;;;18.67;;
24617;SDS011;12762;51.730;5.356;2023-04-09T03:13:06;33.93;;;19.07;;
24617;SDS011;12762;51.730;5.356;2023-04-09T03:15:32;30.23;;;17.83;;
24617;SDS011;12762;51.730;5.356;2023-04-09T03:17:59;33.03;;;19.37;;
24617;SDS011;12762;51.730;5.356;2023-04-09T03:20:26;31.13;;;18.57;;
24617;SDS011;12762;51.730;5.356;2023-04-09T03:22:53;36.10;;;19.00;;
24617;SDS011;12762;51.730;5.356;2023-04-09T03:25:19;31.33;;;18.63;;
24617;SDS011;12762;51.730;5.356;2023-04-09T03:27:46;32.80;;;18.80;;
24617;SDS011;12762;51.730;5.356;2023-04-09T03:30:13;31.30;;;18.40;;
24617;SDS011;12762;51.730;5.356;2023-04-09T03:32:40;34.70;;;19.40;;
24617;SDS011;12762;51.730;5.356;2023-04-09T03:35:07;36.43;;;19.80;;
24617;SDS011;12762;51.730;5.356;2023-04-09T03:37:34;35.30;;;18.87;;
24617;SDS011;12762;51.730;5.356;2023-04-09T03:40:01;34.30;;;18.53;;
24617;SDS011;12762;51.730;5.356;2023-04-09T03:42:28;33.83;;;19.30;;
24617;SDS011;12762;51.730;5.356;2023-04-09T03:44:55;34.00;;;17.80;;
24617;SDS011;12762;51.730;5.356;2023-04-09T03:47:22;35.20;;;19.43;;
24617;SDS011;12762;51.730;5.356;2023-04-09T03:49:49;34.63;;;18.80;;
24617;SDS011;12762;51.730;5.356;2023-04-09T03:52:15;33.63;;;18.43;;
24617;SDS011;12762;51.730;5.356;2023-04-09T03:54:42;36.77;;;20.37;;
24617;SDS011;12762;51.730;5.356;2023-04-09T03:57:09;33.97;;;18.50;;
24617;SDS011;12762;51.730;5.356;2023-04-09T03:59:36;37.70;;;19.63;;
24617;SDS011;12762;51.730;5.356;2023-04-09T04:02:03;37.97;;;19.80;;
24617;SDS011;12762;51.730;5.356;2023-04-09T04:04:30;39.67;;;21.03;;
24617;SDS011;12762;51.730;5.356;2023-04-09T04:06:57;38.77;;;20.83;;
24617;SDS011;12762;51.730;5.356;2023-04-09T04:09:23;41.37;;;22.03;;
24617;SDS011;12762;51.730;5.356;2023-04-09T04:11:51;38.10;;;22.13;;
24617;SDS011;12762;51.730;5.356;2023-04-09T04:14:17;39.80;;;20.70;;
24617;SDS011;12762;51.730;5.356;2023-04-09T04:16:44;37.87;;;20.93;;
24617;SDS011;12762;51.730;5.356;2023-04-09T04:19:11;37.30;;;21.13;;
24617;SDS011;12762;51.730;5.356;2023-04-09T04:21:41;38.27;;;21.33;;
24617;SDS011;12762;51.730;5.356;2023-04-09T04:24:07;41.63;;;21.57;;
24617;SDS011;12762;51.730;5.356;2023-04-09T04:26:34;37.77;;;20.67;;
24617;SDS011;12762;51.730;5.356;2023-04-09T04:29:01;38.87;;;21.00;;
24617;SDS011;12762;51.730;5.356;2023-04-09T04:31:28;46.00;;;24.33;;
24617;SDS011;12762;51.730;5.356;2023-04-09T04:33:55;42.70;;;22.20;;
24617;SDS011;12762;51.730;5.356;2023-04-09T04:36:22;40.30;;;22.47;;
24617;SDS011;12762;51.730;5.356;2023-04-09T04:38:49;46.93;;;23.13;;
24617;SDS011;12762;51.730;5.356;2023-04-09T04:41:16;47.37;;;24.50;;
24617;SDS011;12762;51.730;5.356;2023-04-09T04:43:42;43.63;;;21.93;;
24617;SDS011;12762;51.730;5.356;2023-04-09T04:46:09;46.47;;;24.50;;
24617;SDS011;12762;51.730;5.356;2023-04-09T04:48:36;44.10;;;23.53;;
24617;SDS011;12762;51.730;5.356;2023-04-09T04:51:03;48.20;;;25.37;;
24617;SDS011;12762;51.730;5.356;2023-04-09T04:53:30;51.07;;;26.40;;
24617;SDS011;12762;51.730;5.356;2023-04-09T04:55:56;45.83;;;23.30;;
24617;SDS011;12762;51.730;5.356;2023-04-09T04:58:23;44.90;;;23.73;;
24617;SDS011;12762;51.730;5.356;2023-04-09T05:00:51;45.20;;;24.37;;
24617;SDS011;12762;51.730;5.356;2023-04-09T05:03:17;43.07;;;23.93;;
24617;SDS011;12762;51.730;5.356;2023-04-09T05:05:48;45.87;;;24.13;;
24617;SDS011;12762;51.730;5.356;2023-04-09T05:08:15;45.07;;;24.33;;
24617;SDS011;12762;51.730;5.356;2023-04-09T05:10:42;42.40;;;22.77;;
24617;SDS011;12762;51.730;5.356;2023-04-09T05:13:09;45.63;;;24.57;;
24617;SDS011;12762;51.730;5.356;2023-04-09T05:15:39;47.60;;;23.27;;
24617;SDS011;12762;51.730;5.356;2023-04-09T05:18:07;40.70;;;21.37;;
24617;SDS011;12762;51.730;5.356;2023-04-09T05:20:33;40.93;;;21.17;;
24617;SDS011;12762;51.730;5.356;2023-04-09T05:23:03;37.47;;;19.87;;
24617;SDS011;12762;51.730;5.356;2023-04-09T05:25:30;35.57;;;19.00;;
24617;SDS011;12762;51.730;5.356;2023-04-09T05:27:57;35.33;;;19.83;;
24617;SDS011;12762;51.730;5.356;2023-04-09T05:30:23;38.63;;;20.27;;
24617;SDS011;12762;51.730;5.356;2023-04-09T05:32:50;32.70;;;18.00;;
24617;SDS011;12762;51.730;5.356;2023-04-09T05:35:17;33.73;;;19.10;;
24617;SDS011;12762;51.730;5.356;2023-04-09T05:37:44;33.57;;;18.43;;
24617;SDS011;12762;51.730;5.356;2023-04-09T05:40:11;37.53;;;19.27;;
24617;SDS011;12762;51.730;5.356;2023-04-09T05:42:38;35.80;;;19.33;;
24617;SDS011;12762;51.730;5.356;2023-04-09T05:45:05;32.73;;;18.37;;
24617;SDS011;12762;51.730;5.356;2023-04-09T05:47:33;34.70;;;18.03;;
24617;SDS011;12762;51.730;5.356;2023-04-09T05:49:59;31.93;;;18.17;;
24617;SDS011;12762;51.730;5.356;2023-04-09T05:52:27;32.97;;;18.27;;
24617;SDS011;12762;51.730;5.356;2023-04-09T05:54:53;34.33;;;19.30;;
24617;SDS011;12762;51.730;5.356;2023-04-09T05:57:20;33.93;;;18.60;;
24617;SDS011;12762;51.730;5.356;2023-04-09T05:59:47;36.57;;;18.40;;
24617;SDS011;12762;51.730;5.356;2023-04-09T06:02:16;32.47;;;18.63;;
24617;SDS011;12762;51.730;5.356;2023-04-09T06:04:43;35.73;;;19.77;;
24617;SDS011;12762;51.730;5.356;2023-04-09T06:07:10;32.97;;;18.63;;
24617;SDS011;12762;51.730;5.356;2023-04-09T06:09:37;36.47;;;19.63;;
24617;SDS011;12762;51.730;5.356;2023-04-09T06:12:03;36.10;;;19.33;;
24617;SDS011;12762;51.730;5.356;2023-04-09T06:14:30;35.43;;;18.37;;
24617;SDS011;12762;51.730;5.356;2023-04-09T06:16:58;37.57;;;18.33;;
24617;SDS011;12762;51.730;5.356;2023-04-09T06:19:25;35.40;;;19.13;;
24617;SDS011;12762;51.730;5.356;2023-04-09T06:21:52;31.37;;;18.30;;
24617;SDS011;12762;51.730;5.356;2023-04-09T06:24:19;35.00;;;18.97;;
24617;SDS011;12762;51.730;5.356;2023-04-09T06:26:46;35.10;;;19.67;;
24617;SDS011;12762;51.730;5.356;2023-04-09T06:29:13;36.73;;;19.67;;
24617;SDS011;12762;51.730;5.356;2023-04-09T06:31:40;39.63;;;19.57;;
24617;SDS011;12762;51.730;5.356;2023-04-09T06:34:07;35.07;;;20.37;;
24617;SDS011;12762;51.730;5.356;2023-04-09T06:36:33;36.63;;;18.60;;
24617;SDS011;12762;51.730;5.356;2023-04-09T06:39:05;35.27;;;19.30;;
24617;SDS011;12762;51.730;5.356;2023-04-09T06:41:32;36.00;;;19.40;;
24617;SDS011;12762;51.730;5.356;2023-04-09T06:43:59;35.87;;;19.83;;
24617;SDS011;12762;51.730;5.356;2023-04-09T06:46:28;36.70;;;19.53;;
24617;SDS011;12762;51.730;5.356;2023-04-09T06:48:55;36.90;;;19.20;;
24617;SDS011;12762;51.730;5.356;2023-04-09T06:51:22;38.73;;;20.77;;
24617;SDS011;12762;51.730;5.356;2023-04-09T06:53:49;41.10;;;21.07;;
24617;SDS011;12762;51.730;5.356;2023-04-09T06:56:16;35.83;;;19.37;;
24617;SDS011;12762;51.730;5.356;2023-04-09T06:58:43;35.27;;;20.23;;
24617;SDS011;12762;51.730;5.356;2023-04-09T07:01:11;40.80;;;21.33;;
24617;SDS011;12762;51.730;5.356;2023-04-09T07:03:38;38.00;;;20.00;;
24617;SDS011;12762;51.730;5.356;2023-04-09T07:06:04;35.23;;;20.20;;
24617;SDS011;12762;51.730;5.356;2023-04-09T07:08:31;38.13;;;21.10;;
24617;SDS011;12762;51.730;5.356;2023-04-09T07:10:58;38.67;;;21.50;;
24617;SDS011;12762;51.730;5.356;2023-04-09T07:13:25;38.07;;;21.47;;
24617;SDS011;12762;51.730;5.356;2023-04-09T07:15:52;42.30;;;22.07;;
24617;SDS011;12762;51.730;5.356;2023-04-09T07:18:18;38.67;;;22.07;;
24617;SDS011;12762;51.730;5.356;2023-04-09T07:20:45;41.67;;;22.23;;
24617;SDS011;12762;51.730;5.356;2023-04-09T07:23:17;40.00;;;21.37;;
24617;SDS011;12762;51.730;5.356;2023-04-09T07:25:43;41.43;;;20.53;;
24617;SDS011;12762;51.730;5.356;2023-04-09T07:28:10;38.27;;;21.20;;
24617;SDS011;12762;51.730;5.356;2023-04-09T07:30:38;38.33;;;21.30;;
24617;SDS011;12762;51.730;5.356;2023-04-09T07:33:05;42.37;;;22.50;;
24617;SDS011;12762;51.730;5.356;2023-04-09T07:35:32;41.67;;;22.27;;
24617;SDS011;12762;51.730;5.356;2023-04-09T07:38:00;40.03;;;23.00;;
24617;SDS011;12762;51.730;5.356;2023-04-09T07:40:26;39.73;;;23.40;;
24617;SDS011;12762;51.730;5.356;2023-04-09T07:42:57;39.97;;;21.67;;
24617;SDS011;12762;51.730;5.356;2023-04-09T07:45:24;37.40;;;23.17;;
24617;SDS011;12762;51.730;5.356;2023-04-09T07:47:51;38.77;;;21.53;;
24617;SDS011;12762;51.730;5.356;2023-04-09T07:50:18;35.03;;;22.27;;
24617;SDS011;12762;51.730;5.356;2023-04-09T07:52:47;36.13;;;22.30;;
24617;SDS011;12762;51.730;5.356;2023-04-09T07:55:14;33.97;;;20.67;;
24617;SDS011;12762;51.730;5.356;2023-04-09T07:57:43;39.30;;;23.03;;
24617;SDS011;12762;51.730;5.356;2023-04-09T08:00:10;37.73;;;22.53;;
24617;SDS011;12762;51.730;5.356;2023-04-09T08:02:37;34.63;;;22.00;;
24617;SDS011;12762;51.730;5.356;2023-04-09T08:05:05;36.03;;;22.10;;
24617;SDS011;12762;51.730;5.356;2023-04-09T08:07:33;35.60;;;21.53;;
24617;SDS011;12762;51.730;5.356;2023-04-09T08:09:59;34.03;;;21.43;;
24617;SDS011;12762;51.730;5.356;2023-04-09T08:12:26;35.60;;;21.37;;
24617;SDS011;12762;51.730;5.356;2023-04-09T08:14:56;35.40;;;21.57;;
24617;SDS011;12762;51.730;5.356;2023-04-09T08:17:23;36.33;;;22.17;;
24617;SDS011;12762;51.730;5.356;2023-04-09T08:19:50;36.77;;;22.27;;
24617;SDS011;12762;51.730;5.356;2023-04-09T08:22:16;39.70;;;23.23;;
24617;SDS011;12762;51.730;5.356;2023-04-09T08:24:43;36.53;;;22.90;;
24617;SDS011;12762;51.730;5.356;2023-04-09T08:27:10;36.80;;;22.70;;
24617;SDS011;12762;51.730;5.356;2023-04-09T08:29:37;41.70;;;24.17;;
24617;SDS011;12762;51.730;5.356;2023-04-09T08:32:05;38.43;;;23.27;;
24617;SDS011;12762;51.730;5.356;2023-04-09T08:34:33;35.93;;;22.23;;
24617;SDS011;12762;51.730;5.356;2023-04-09T08:37:00;37.10;;;22.70;;
24617;SDS011;12762;51.730;5.356;2023-04-09T08:39:27;36.40;;;22.60;;
24617;SDS011;12762;51.730;5.356;2023-04-09T08:41:57;36.80;;;22.47;;
24617;SDS011;12762;51.730;5.356;2023-04-09T08:44:27;37.73;;;23.67;;
24617;SDS011;12762;51.730;5.356;2023-04-09T08:46:54;38.87;;;23.93;;
24617;SDS011;12762;51.730;5.356;2023-04-09T08:49:24;39.40;;;24.93;;
24617;SDS011;12762;51.730;5.356;2023-04-09T08:51:51;38.03;;;24.53;;
24617;SDS011;12762;51.730;5.356;2023-04-09T08:54:18;37.23;;;24.17;;
24617;SDS011;12762;51.730;5.356;2023-04-09T08:56:45;34.57;;;22.83;;
24617;SDS011;12762;51.730;5.356;2023-04-09T08:59:15;38.47;;;24.87;;
24617;SDS011;12762;51.730;5.356;2023-04-09T09:01:47;37.37;;;24.03;;
24617;SDS011;12762;51.730;5.356;2023-04-09T09:04:19;34.50;;;23.47;;
24617;SDS011;12762;51.730;5.356;2023-04-09T09:06:46;38.57;;;25.63;;
24617;SDS011;12762;51.730;5.356;2023-04-09T09:09:14;35.67;;;24.73;;
24617;SDS011;12762;51.730;5.356;2023-04-09T09:11:44;41.33;;;26.13;;
24617;SDS011;12762;51.730;5.356;2023-04-09T09:14:14;38.57;;;26.33;;
24617;SDS011;12762;51.730;5.356;2023-04-09T09:16:44;38.30;;;24.87;;
24617;SDS011;12762;51.730;5.356;2023-04-09T09:19:32;39.03;;;25.47;;
24617;SDS011;12762;51.730;5.356;2023-04-09T09:22:01;38.43;;;26.17;;
24617;SDS011;12762;51.730;5.356;2023-04-09T09:24:33;43.10;;;27.47;;
24617;SDS011;12762;51.730;5.356;2023-04-09T09:27:32;38.60;;;24.60;;
24617;SDS011;12762;51.730;5.356;2023-04-09T09:30:03;37.30;;;24.50;;
24617;SDS011;12762;51.730;5.356;2023-04-09T09:32:32;37.40;;;24.57;;
24617;SDS011;12762;51.730;5.356;2023-04-09T09:35:00;39.27;;;24.97;;
24617;SDS011;12762;51.730;5.356;2023-04-09T09:37:28;37.93;;;25.03;;
24617;SDS011;12762;51.730;5.356;2023-04-09T09:39:56;38.23;;;25.63;;
24617;SDS011;12762;51.730;5.356;2023-04-09T09:42:24;37.97;;;25.47;;
24617;SDS011;12762;51.730;5.356;2023-04-09T09:44:54;39.20;;;26.40;;
24617;SDS011;12762;51.730;5.356;2023-04-09T09:47:21;35.80;;;25.30;;
24617;SDS011;12762;51.730;5.356;2023-04-09T09:49:50;41.10;;;26.67;;
24617;SDS011;12762;51.730;5.356;2023-04-09T09:52:20;36.43;;;24.57;;
24617;SDS011;12762;51.730;5.356;2023-04-09T09:54:52;36.13;;;24.90;;
24617;SDS011;12762;51.730;5.356;2023-04-09T09:57:22;37.23;;;24.27;;
24617;SDS011;12762;51.730;5.356;2023-04-09T09:59:53;37.27;;;24.33;;
24617;SDS011;12762;51.730;5.356;2023-04-09T10:02:27;37.10;;;24.30;;
24617;SDS011;12762;51.730;5.356;2023-04-09T10:05:03;37.10;;;23.67;;
24617;SDS011;12762;51.730;5.356;2023-04-09T10:07:35;33.63;;;22.97;;
24617;SDS011;12762;51.730;5.356;2023-04-09T10:10:03;36.00;;;24.63;;
24617;SDS011;12762;51.730;5.356;2023-04-09T10:12:32;35.00;;;24.30;;
24617;SDS011;12762;51.730;5.356;2023-04-09T10:15:01;34.73;;;21.97;;
24617;SDS011;12762;51.730;5.356;2023-04-09T10:17:31;31.83;;;20.53;;
24617;SDS011;12762;51.730;5.356;2023-04-09T10:20:06;30.43;;;21.43;;
24617;SDS011;12762;51.730;5.356;2023-04-09T10:22:37;28.03;;;18.90;;
24617;SDS011;12762;51.730;5.356;2023-04-09T10:25:05;22.97;;;15.50;;
24617;SDS011;12762;51.730;5.356;2023-04-09T10:27:32;24.73;;;17.37;;
24617;SDS011;12762;51.730;5.356;2023-04-09T10:29:59;30.47;;;19.93;;
24617;SDS011;12762;51.730;5.356;2023-04-09T10:32:27;29.77;;;20.20;;
24617;SDS011;12762;51.730;5.356;2023-04-09T10:35:02;29.70;;;21.47;;
24617;SDS011;12762;51.730;5.356;2023-04-09T10:37:29;32.47;;;21.07;;
24617;SDS011;12762;51.730;5.356;2023-04-09T10:39:56;28.70;;;19.03;;
24617;SDS011;12762;51.730;5.356;2023-04-09T10:45:08;30.93;;;20.90;;
24617;SDS011;12762;51.730;5.356;2023-04-09T10:47:40;30.60;;;21.07;;
24617;SDS011;12762;51.730;5.356;2023-04-09T10:50:19;31.13;;;21.97;;
24617;SDS011;12762;51.730;5.356;2023-04-09T10:52:55;32.47;;;20.97;;
24617;SDS011;12762;51.730;5.356;2023-04-09T10:55:33;30.43;;;21.60;;
24617;SDS011;12762;51.730;5.356;2023-04-09T10:58:04;29.83;;;19.93;;
24617;SDS011;12762;51.730;5.356;2023-04-09T11:00:40;26.40;;;19.00;;
24617;SDS011;12762;51.730;5.356;2023-04-09T11:06:03;27.23;;;18.47;;
24617;SDS011;12762;51.730;5.356;2023-04-09T11:08:32;27.53;;;18.23;;
24617;SDS011;12762;51.730;5.356;2023-04-09T11:10:59;24.60;;;18.03;;
24617;SDS011;12762;51.730;5.356;2023-04-09T11:13:28;24.93;;;17.53;;
24617;SDS011;12762;51.730;5.356;2023-04-09T11:15:56;27.97;;;18.50;;
24617;SDS011;12762;51.730;5.356;2023-04-09T11:18:25;26.67;;;19.00;;
24617;SDS011;12762;51.730;5.356;2023-04-09T11:20:57;24.63;;;16.53;;
24617;SDS011;12762;51.730;5.356;2023-04-09T11:23:25;20.93;;;14.53;;
24617;SDS011;12762;51.730;5.356;2023-04-09T11:25:52;24.50;;;17.43;;
24617;SDS011;12762;51.730;5.356;2023-04-09T11:28:22;25.40;;;17.77;;
24617;SDS011;12762;51.730;5.356;2023-04-09T11:30:50;25.73;;;17.67;;
24617;SDS011;12762;51.730;5.356;2023-04-09T11:33:17;24.23;;;16.57;;
24617;SDS011;12762;51.730;5.356;2023-04-09T11:35:45;21.63;;;14.83;;
24617;SDS011;12762;51.730;5.356;2023-04-09T11:38:13;24.97;;;17.90;;
24617;SDS011;12762;51.730;5.356;2023-04-09T11:40:40;28.33;;;19.33;;
24617;SDS011;12762;51.730;5.356;2023-04-09T11:43:15;27.83;;;20.00;;
24617;SDS011;12762;51.730;5.356;2023-04-09T11:45:46;27.83;;;19.20;;
24617;SDS011;12762;51.730;5.356;2023-04-09T11:48:14;28.97;;;18.93;;
24617;SDS011;12762;51.730;5.356;2023-04-09T11:50:47;25.97;;;18.30;;
24617;SDS011;12762;51.730;5.356;2023-04-09T11:53:20;26.83;;;19.00;;
24617;SDS011;12762;51.730;5.356;2023-04-09T11:55:51;27.80;;;19.17;;
24617;SDS011;12762;51.730;5.356;2023-04-09T11:58:21;25.70;;;17.93;;
24617;SDS011;12762;51.730;5.356;2023-04-09T12:00:58;24.20;;;15.67;;
24617;SDS011;12762;51.730;5.356;2023-04-09T12:03:29;21.60;;;15.57;;
24617;SDS011;12762;51.730;5.356;2023-04-09T12:05:59;23.63;;;16.37;;
24617;SDS011;12762;51.730;5.356;2023-04-09T12:08:27;24.17;;;16.87;;
24617;SDS011;12762;51.730;5.356;2023-04-09T12:10:54;21.93;;;15.13;;
24617;SDS011;12762;51.730;5.356;2023-04-09T12:13:30;21.43;;;14.17;;
24617;SDS011;12762;51.730;5.356;2023-04-09T12:15:59;18.83;;;12.73;;
24617;SDS011;12762;51.730;5.356;2023-04-09T12:18:27;18.60;;;13.03;;
24617;SDS011;12762;51.730;5.356;2023-04-09T12:20:54;18.03;;;12.73;;
24617;SDS011;12762;51.730;5.356;2023-04-09T12:23:21;18.03;;;13.07;;
24617;SDS011;12762;51.730;5.356;2023-04-09T12:25:48;17.13;;;11.90;;
24617;SDS011;12762;51.730;5.356;2023-04-09T12:28:14;16.23;;;10.87;;
24617;SDS011;12762;51.730;5.356;2023-04-09T12:30:43;17.40;;;12.27;;
24617;SDS011;12762;51.730;5.356;2023-04-09T12:33:11;17.97;;;12.57;;
24617;SDS011;12762;51.730;5.356;2023-04-09T12:35:38;17.73;;;11.87;;
24617;SDS011;12762;51.730;5.356;2023-04-09T12:38:05;16.73;;;10.83;;
24617;SDS011;12762;51.730;5.356;2023-04-09T12:40:40;16.70;;;11.73;;
24617;SDS011;12762;51.730;5.356;2023-04-09T12:43:07;15.70;;;11.43;;
24617;SDS011;12762;51.730;5.356;2023-04-09T12:45:34;19.00;;;10.73;;
24617;SDS011;12762;51.730;5.356;2023-04-09T12:48:01;18.10;;;11.13;;
24617;SDS011;12762;51.730;5.356;2023-04-09T12:50:28;13.90;;;10.27;;
24617;SDS011;12762;51.730;5.356;2023-04-09T12:52:55;14.47;;;10.67;;
24617;SDS011;12762;51.730;5.356;2023-04-09T12:55:22;13.83;;;9.77;;
24617;SDS011;12762;51.730;5.356;2023-04-09T12:57:49;13.13;;;9.67;;
24617;SDS011;12762;51.730;5.356;2023-04-09T13:00:16;14.10;;;10.07;;
24617;SDS011;12762;51.730;5.356;2023-04-09T13:02:43;14.17;;;9.90;;
24617;SDS011;12762;51.730;5.356;2023-04-09T13:05:10;12.80;;;9.50;;
24617;SDS011;12762;51.730;5.356;2023-04-09T13:07:37;12.47;;;9.17;;
24617;SDS011;12762;51.730;5.356;2023-04-09T13:10:07;13.67;;;9.87;;
24617;SDS011;12762;51.730;5.356;2023-04-09T13:12:35;15.60;;;10.17;;
24617;SDS011;12762;51.730;5.356;2023-04-09T13:15:05;12.13;;;8.27;;
24617;SDS011;12762;51.730;5.356;2023-04-09T13:17:32;12.70;;;9.13;;
24617;SDS011;12762;51.730;5.356;2023-04-09T13:19:59;13.93;;;9.27;;
24617;SDS011;12762;51.730;5.356;2023-04-09T13:22:26;13.93;;;10.00;;
24617;SDS011;12762;51.730;5.356;2023-04-09T13:24:53;15.07;;;10.37;;
24617;SDS011;12762;51.730;5.356;2023-04-09T13:27:20;13.70;;;9.43;;
24617;SDS011;12762;51.730;5.356;2023-04-09T13:29:48;13.90;;;9.57;;
24617;SDS011;12762;51.730;5.356;2023-04-09T13:32:15;12.43;;;8.90;;
24617;SDS011;12762;51.730;5.356;2023-04-09T13:34:47;15.13;;;9.53;;
24617;SDS011;12762;51.730;5.356;2023-04-09T13:44:00;11.93;;;8.53;;
24617;SDS011;12762;51.730;5.356;2023-04-09T13:46:27;12.33;;;9.10;;
24617;SDS011;12762;51.730;5.356;2023-04-09T13:48:54;14.47;;;9.17;;
24617;SDS011;12762;51.730;5.356;2023-04-09T13:51:21;12.80;;;9.23;;
24617;SDS011;12762;51.730;5.356;2023-04-09T13:53:48;11.90;;;8.30;;
24617;SDS011;12762;51.730;5.356;2023-04-09T13:56:15;12.53;;;8.73;;
24617;SDS011;12762;51.730;5.356;2023-04-09T13:58:42;10.80;;;7.70;;
24617;SDS011;12762;51.730;5.356;2023-04-09T14:01:10;13.40;;;8.77;;
24617;SDS011;12762;51.730;5.356;2023-04-09T14:03:37;11.47;;;8.40;;
24617;SDS011;12762;51.730;5.356;2023-04-09T14:06:05;13.00;;;7.60;;
24617;SDS011;12762;51.730;5.356;2023-04-09T14:08:36;10.93;;;7.40;;
24617;SDS011;12762;51.730;5.356;2023-04-09T14:11:02;10.07;;;7.17;;
24617;SDS011;12762;51.730;5.356;2023-04-09T14:13:31;11.27;;;8.03;;
24617;SDS011;12762;51.730;5.356;2023-04-09T14:15:58;10.77;;;7.53;;
24617;SDS011;12762;51.730;5.356;2023-04-09T14:18:27;10.80;;;6.97;;
24617;SDS011;12762;51.730;5.356;2023-04-09T14:20:54;10.37;;;7.77;;
24617;SDS011;12762;51.730;5.356;2023-04-09T14:23:21;11.90;;;8.10;;
24617;SDS011;12762;51.730;5.356;2023-04-09T14:25:48;11.20;;;7.77;;
24617;SDS011;12762;51.730;5.356;2023-04-09T14:28:15;10.80;;;7.50;;
24617;SDS011;12762;51.730;5.356;2023-04-09T14:30:42;10.13;;;7.60;;
24617;SDS011;12762;51.730;5.356;2023-04-09T14:33:08;9.87;;;7.33;;
24617;SDS011;12762;51.730;5.356;2023-04-09T14:35:35;11.57;;;8.00;;
24617;SDS011;12762;51.730;5.356;2023-04-09T14:38:02;12.70;;;8.87;;
24617;SDS011;12762;51.730;5.356;2023-04-09T14:40:30;10.07;;;7.77;;
24617;SDS011;12762;51.730;5.356;2023-04-09T14:43:00;10.83;;;7.60;;
24617;SDS011;12762;51.730;5.356;2023-04-09T14:45:26;10.43;;;7.30;;
24617;SDS011;12762;51.730;5.356;2023-04-09T14:47:56;11.87;;;8.40;;
24617;SDS011;12762;51.730;5.356;2023-04-09T14:50:26;9.83;;;7.30;;
24617;SDS011;12762;51.730;5.356;2023-04-09T14:52:53;10.97;;;8.17;;
24617;SDS011;12762;51.730;5.356;2023-04-09T14:55:20;11.60;;;7.97;;
24617;SDS011;12762;51.730;5.356;2023-04-09T14:57:47;10.07;;;7.67;;